»·PEaware :: SWA3006 KPDX-KOAK

SWA3006 :: KPDX-KOAK

FLIGHT INFORMATION

Flight Status: Arrived
Operator:
Southwest Airlines
More flights by this operator :: More flights under this callsign
Pilot: Kyle M. (9350)
Aircraft: BOEING 737-300
(B733)
More flights by this aircraft type
Origin: KPDX Portland Intl
United States
Destination: KOAK Metro Oakland Intl
United States
More flights between these airports :: More routes between these airports
Route: MINNE5 HISKU Q5 HUPTU SPAMY WNDSR2
File this flight plan on PilotEdge
Remarks: RMK / SIMBRIEF
Altitude:
(Current/Filed)
35,000ft
Speed:
(Current/Filed)
440kts
Departed: 28-Jul-20 08:56 PM
Arrived: 28-Jul-20 10:22 PM
Distance/Time
Traveled:
473nm/1:25
Distance/Time
To Go:
Arrived

Flight Plot

Page will automatically refresh every two minutes.


Map Options




Map Legend


Flown Route
Filed Route
Departure Airport
Arrival Airport
Navaid (VOR, NDB)
Fix

Horizontal Profiles

Position Reports

Time Latitude Longitude Heading Altitude Ground
Speed
28-Jul-20 20:33 45.589006 -122.597958 14 29ft 0kts
28-Jul-20 20:34 45.589006 -122.597958 14 29ft 0kts
28-Jul-20 20:35 45.589006 -122.597958 14 29ft 0kts
28-Jul-20 20:36 45.589006 -122.597958 14 29ft 0kts
28-Jul-20 20:37 45.589006 -122.597958 14 29ft 0kts
28-Jul-20 20:38 45.589006 -122.597958 14 29ft 0kts
28-Jul-20 20:39 45.589006 -122.597958 14 29ft 0kts
28-Jul-20 20:40 45.589006 -122.597958 14 29ft 0kts
28-Jul-20 20:41 45.589006 -122.597958 14 29ft 0kts
28-Jul-20 20:42 45.589006 -122.597958 14 29ft 0kts
28-Jul-20 20:43 45.589005 -122.597958 14 29ft 0kts
28-Jul-20 20:44 45.588436 -122.598185 38 29ft 2kts
28-Jul-20 20:45 45.588385 -122.598744 119 29ft 0kts
28-Jul-20 20:46 45.588384 -122.598743 119 29ft 0kts
28-Jul-20 20:47 45.588384 -122.598743 119 29ft 0kts
28-Jul-20 20:48 45.588384 -122.598743 119 29ft 0kts
28-Jul-20 20:49 45.588384 -122.598743 119 29ft 0kts
28-Jul-20 20:50 45.588253 -122.598412 118 29ft 5kts
28-Jul-20 20:51 45.586339 -122.593834 128 29ft 17kts
28-Jul-20 20:52 45.583133 -122.587404 118 29ft 21kts
28-Jul-20 20:53 45.581432 -122.583631 167 29ft 0kts
28-Jul-20 20:54 45.581083 -122.585319 299 29ft 22kts
28-Jul-20 20:55 45.599193 -122.631050 300 1471ft 176kts
28-Jul-20 20:56 45.628427 -122.699575 301 3856ft 220kts
28-Jul-20 20:57 45.662068 -122.783305 300 6309ft 269kts
28-Jul-20 20:58 45.657267 -122.888223 243 9517ft 282kts
28-Jul-20 20:59 45.579831 -122.927171 187 11573ft 336kts
28-Jul-20 21:00 45.485310 -122.938129 186 14401ft 348kts
28-Jul-20 21:01 45.386761 -122.949593 186 16847ft 363kts
28-Jul-20 21:03 45.284220 -122.961487 186 19102ft 376kts
28-Jul-20 21:04 45.177394 -122.967437 179 21189ft 390kts
28-Jul-20 21:05 45.066918 -122.963358 180 22858ft 403kts
28-Jul-20 21:06 44.954213 -122.959450 180 22925ft 401kts
28-Jul-20 21:07 44.840328 -122.955534 179 24414ft 412kts
28-Jul-20 21:08 44.723884 -122.951546 179 26095ft 422kts
28-Jul-20 21:09 44.604831 -122.947481 179 27655ft 432kts
28-Jul-20 21:10 44.484208 -122.943468 179 29584ft 428kts
28-Jul-20 21:11 44.365091 -122.939917 178 31259ft 426kts
28-Jul-20 21:12 44.246774 -122.936255 178 32770ft 424kts
28-Jul-20 21:13 44.129251 -122.932625 178 34079ft 422kts
28-Jul-20 21:14 44.011708 -122.929011 179 34976ft 422kts
28-Jul-20 21:15 43.895108 -122.925441 179 34933ft 417kts
28-Jul-20 21:16 43.776368 -122.921794 179 34899ft 433kts
28-Jul-20 21:17 43.653874 -122.918085 179 34952ft 442kts
28-Jul-20 21:17 43.550965 -122.914982 180 34950ft 441kts
28-Jul-20 21:19 43.407184 -122.910669 180 34950ft 441kts
28-Jul-20 21:20 43.284289 -122.907006 180 34951ft 440kts
28-Jul-20 21:20 43.182104 -122.903966 180 34951ft 439kts
28-Jul-20 21:22 43.038933 -122.899722 180 34944ft 438kts
28-Jul-20 21:23 42.916584 -122.896115 181 34942ft 438kts
28-Jul-20 21:23 42.814713 -122.893111 181 34942ft 438kts
28-Jul-20 21:25 42.672106 -122.888935 181 34932ft 437kts
28-Jul-20 21:25 42.570399 -122.885966 181 34888ft 437kts
28-Jul-20 21:26 42.448241 -122.882608 182 34875ft 436kts
28-Jul-20 21:28 42.306131 -122.878676 182 34875ft 436kts
28-Jul-20 21:28 42.204791 -122.875755 182 34875ft 436kts
28-Jul-20 21:29 42.083399 -122.872268 182 34903ft 435kts
28-Jul-20 21:30 41.962239 -122.868795 183 34952ft 432kts
28-Jul-20 21:31 41.841494 -122.865349 183 34972ft 431kts
28-Jul-20 21:32 41.721385 -122.861933 183 34975ft 431kts
28-Jul-20 21:33 41.600821 -122.858526 183 34976ft 431kts
28-Jul-20 21:34 41.480444 -122.855190 183 34974ft 430kts
28-Jul-20 21:35 41.360575 -122.852004 183 34978ft 430kts
28-Jul-20 21:36 41.240287 -122.845619 182 34985ft 430kts
28-Jul-20 21:37 41.120446 -122.838404 182 34984ft 430kts
28-Jul-20 21:38 41.000747 -122.831250 182 34983ft 430kts
28-Jul-20 21:39 40.882347 -122.824201 182 34944ft 430kts
28-Jul-20 21:40 40.762693 -122.817086 182 34974ft 429kts
28-Jul-20 21:41 40.643063 -122.810012 182 34867ft 429kts
28-Jul-20 21:42 40.523373 -122.802959 183 34846ft 429kts
28-Jul-20 21:43 40.403807 -122.795942 183 34847ft 429kts
28-Jul-20 21:44 40.283714 -122.788920 183 34847ft 429kts
28-Jul-20 21:45 40.163894 -122.781934 183 34840ft 429kts
28-Jul-20 21:46 40.044580 -122.774997 183 34837ft 428kts
28-Jul-20 21:47 39.925155 -122.768084 183 34836ft 427kts
28-Jul-20 21:48 39.805758 -122.761187 183 34840ft 427kts
28-Jul-20 21:49 39.686657 -122.754341 183 34837ft 426kts
28-Jul-20 21:50 39.567987 -122.747548 183 34867ft 427kts
28-Jul-20 21:51 39.450298 -122.720292 163 32492ft 449kts
28-Jul-20 21:52 39.334623 -122.659318 163 29144ft 448kts
28-Jul-20 21:53 39.218440 -122.599919 162 25794ft 446kts
28-Jul-20 21:54 39.104024 -122.577189 177 24194ft 397kts
28-Jul-20 21:55 38.996309 -122.557492 172 22078ft 381kts
28-Jul-20 21:56 38.893785 -122.531599 172 21921ft 374kts
28-Jul-20 21:57 38.789108 -122.505452 172 21947ft 372kts
28-Jul-20 21:58 38.686894 -122.479979 173 21947ft 372kts
28-Jul-20 21:59 38.587136 -122.464323 176 21075ft 367kts
28-Jul-20 22:00 38.486978 -122.449031 175 18938ft 356kts
28-Jul-20 22:01 38.389682 -122.434213 174 16941ft 345kts
28-Jul-20 22:02 38.295387 -122.419892 174 15048ft 334kts
28-Jul-20 22:03 38.202026 -122.405756 173 12091ft 355kts
28-Jul-20 22:04 38.109249 -122.391535 173 10188ft 317kts
28-Jul-20 22:05 38.025172 -122.378198 166 8374ft 292kts
28-Jul-20 22:06 37.960056 -122.320483 145 6553ft 278kts
28-Jul-20 22:07 37.903032 -122.265770 146 5821ft 232kts
28-Jul-20 22:08 37.851603 -122.216958 146 5302ft 228kts
28-Jul-20 22:09 37.800723 -122.168619 146 4979ft 225kts
28-Jul-20 22:10 37.757261 -122.108978 131 5009ft 233kts
28-Jul-20 22:11 37.717086 -122.043860 131 4983ft 234kts
28-Jul-20 22:12 37.677355 -121.977447 129 4961ft 236kts
28-Jul-20 22:13 37.635492 -121.913775 162 4927ft 229kts
28-Jul-20 22:14 37.579418 -121.938791 212 4947ft 218kts
28-Jul-20 22:15 37.568752 -122.005772 283 4454ft 219kts
28-Jul-20 22:16 37.601611 -122.065452 306 3062ft 188kts
28-Jul-20 22:17 37.632465 -122.111167 307 2166ft 162kts
28-Jul-20 22:18 37.659081 -122.151084 309 1337ft 144kts
28-Jul-20 22:19 37.684599 -122.188892 310 569ft 137kts
28-Jul-20 22:20 37.708667 -122.225027 310 11ft 102kts
28-Jul-20 22:21 37.714993 -122.231028 85 11ft 11kts
28-Jul-20 22:22 37.712159 -122.226521 129 11ft 16kts
28-Jul-20 22:23 37.712669 -122.221529 129 11ft 19kts
28-Jul-20 22:24 37.709172 -122.216471 127 11ft 17kts
28-Jul-20 22:25 37.708949 -122.213616 115 11ft 5kts

Navigation Log

Ident Type
Flight plan parsing failed, navigation log unavailable